sensor_id;sensor_type;location;lat;lon;timestamp;temperature;humidity
11399;DHT22;5755;48.116;11.608;2023-01-04T00:01:33;4.70;99.90
11399;DHT22;5755;48.116;11.608;2023-01-04T00:04:00;4.60;99.90
11399;DHT22;5755;48.116;11.608;2023-01-04T00:06:26;4.60;99.90
11399;DHT22;5755;48.116;11.608;2023-01-04T00:08:53;4.50;99.90
11399;DHT22;5755;48.116;11.608;2023-01-04T00:11:21;4.40;99.90
11399;DHT22;5755;48.116;11.608;2023-01-04T00:13:50;4.40;99.90
11399;DHT22;5755;48.116;11.608;2023-01-04T00:16:20;4.30;99.90
11399;DHT22;5755;48.116;11.608;2023-01-04T00:18:48;4.30;99.90
11399;DHT22;5755;48.116;11.608;2023-01-04T00:21:16;4.30;99.90
11399;DHT22;5755;48.116;11.608;2023-01-04T00:23:44;4.30;99.90
11399;DHT22;5755;48.116;11.608;2023-01-04T00:26:13;4.30;99.90
11399;DHT22;5755;48.116;11.608;2023-01-04T00:28:41;4.30;99.90
11399;DHT22;5755;48.116;11.608;2023-01-04T00:31:10;4.20;99.90
11399;DHT22;5755;48.116;11.608;2023-01-04T00:33:38;4.10;99.90
11399;DHT22;5755;48.116;11.608;2023-01-04T00:36:07;4.20;99.90
11399;DHT22;5755;48.116;11.608;2023-01-04T00:38:35;4.10;99.90
11399;DHT22;5755;48.116;11.608;2023-01-04T00:41:02;4.10;99.90
11399;DHT22;5755;48.116;11.608;2023-01-04T00:43:29;4.10;99.90
11399;DHT22;5755;48.116;11.608;2023-01-04T00:45:57;4.10;99.90
11399;DHT22;5755;48.116;11.608;2023-01-04T00:48:25;4.00;99.90
11399;DHT22;5755;48.116;11.608;2023-01-04T00:50:54;3.90;99.90
11399;DHT22;5755;48.116;11.608;2023-01-04T00:53:21;3.90;99.90
11399;DHT22;5755;48.116;11.608;2023-01-04T00:55:48;3.90;99.90
11399;DHT22;5755;48.116;11.608;2023-01-04T00:58:15;3.90;99.90
11399;DHT22;5755;48.116;11.608;2023-01-04T01:00:50;3.80;99.90
11399;DHT22;5755;48.116;11.608;2023-01-04T01:03:18;3.80;99.90
11399;DHT22;5755;48.116;11.608;2023-01-04T01:05:45;3.80;99.90
11399;DHT22;5755;48.116;11.608;2023-01-04T01:08:13;3.70;99.90
11399;DHT22;5755;48.116;11.608;2023-01-04T01:10:52;3.70;99.90
11399;DHT22;5755;48.116;11.608;2023-01-04T01:13:20;3.70;99.90
11399;DHT22;5755;48.116;11.608;2023-01-04T01:15:47;3.70;99.90
11399;DHT22;5755;48.116;11.608;2023-01-04T01:18:14;3.70;99.90
11399;DHT22;5755;48.116;11.608;2023-01-04T01:20:41;3.70;99.90
11399;DHT22;5755;48.116;11.608;2023-01-04T01:23:11;3.60;99.90
11399;DHT22;5755;48.116;11.608;2023-01-04T01:25:39;3.70;99.90
11399;DHT22;5755;48.116;11.608;2023-01-04T01:28:07;3.70;99.90
11399;DHT22;5755;48.116;11.608;2023-01-04T01:30:38;3.60;99.90
11399;DHT22;5755;48.116;11.608;2023-01-04T01:33:05;3.60;99.90
11399;DHT22;5755;48.116;11.608;2023-01-04T01:35:32;3.60;99.90
11399;DHT22;5755;48.116;11.608;2023-01-04T01:37:59;3.50;99.90
11399;DHT22;5755;48.116;11.608;2023-01-04T01:40:26;3.50;99.90
11399;DHT22;5755;48.116;11.608;2023-01-04T01:42:54;3.50;99.90
11399;DHT22;5755;48.116;11.608;2023-01-04T01:45:25;3.50;99.90
11399;DHT22;5755;48.116;11.608;2023-01-04T01:47:56;3.60;99.90
11399;DHT22;5755;48.116;11.608;2023-01-04T01:50:26;3.60;99.90
11399;DHT22;5755;48.116;11.608;2023-01-04T01:52:57;3.70;99.90
11399;DHT22;5755;48.116;11.608;2023-01-04T01:55:24;3.70;99.90
11399;DHT22;5755;48.116;11.608;2023-01-04T01:57:54;3.70;99.90
11399;DHT22;5755;48.116;11.608;2023-01-04T02:00:21;3.60;99.90
11399;DHT22;5755;48.116;11.608;2023-01-04T02:02:54;3.50;99.90
11399;DHT22;5755;48.116;11.608;2023-01-04T02:12:09;3.30;99.90
11399;DHT22;5755;48.116;11.608;2023-01-04T02:14:39;3.40;99.90
11399;DHT22;5755;48.116;11.608;2023-01-04T02:17:15;3.50;99.90
11399;DHT22;5755;48.116;11.608;2023-01-04T02:19:59;3.50;99.90
11399;DHT22;5755;48.116;11.608;2023-01-04T02:29:03;3.60;99.90
11399;DHT22;5755;48.116;11.608;2023-01-04T02:31:39;3.70;99.90
11399;DHT22;5755;48.116;11.608;2023-01-04T02:34:13;3.70;99.90
11399;DHT22;5755;48.116;11.608;2023-01-04T02:36:44;3.80;99.90
11399;DHT22;5755;48.116;11.608;2023-01-04T02:39:22;3.90;99.90
11399;DHT22;5755;48.116;11.608;2023-01-04T02:41:56;3.80;99.90
11399;DHT22;5755;48.116;11.608;2023-01-04T02:44:29;3.90;99.90
11399;DHT22;5755;48.116;11.608;2023-01-04T02:47:20;3.90;99.90
11399;DHT22;5755;48.116;11.608;2023-01-04T02:50:24;3.90;99.90
11399;DHT22;5755;48.116;11.608;2023-01-04T02:52:56;3.90;99.90
11399;DHT22;5755;48.116;11.608;2023-01-04T02:55:26;3.90;99.90
11399;DHT22;5755;48.116;11.608;2023-01-04T02:58:02;3.90;99.90
11399;DHT22;5755;48.116;11.608;2023-01-04T03:00:40;4.00;99.90
11399;DHT22;5755;48.116;11.608;2023-01-04T03:03:31;4.10;99.90
11399;DHT22;5755;48.116;11.608;2023-01-04T03:06:24;4.20;99.90
11399;DHT22;5755;48.116;11.608;2023-01-04T03:08:58;4.30;99.90
11399;DHT22;5755;48.116;11.608;2023-01-04T03:11:35;4.40;99.90
11399;DHT22;5755;48.116;11.608;2023-01-04T03:14:25;4.40;99.90
11399;DHT22;5755;48.116;11.608;2023-01-04T03:16:53;4.40;99.90
11399;DHT22;5755;48.116;11.608;2023-01-04T03:19:23;4.30;99.90
11399;DHT22;5755;48.116;11.608;2023-01-04T03:22:05;4.30;99.90
11399;DHT22;5755;48.116;11.608;2023-01-04T03:24:53;4.30;99.90
11399;DHT22;5755;48.116;11.608;2023-01-04T03:27:40;4.20;99.90
11399;DHT22;5755;48.116;11.608;2023-01-04T03:30:27;4.20;99.90
11399;DHT22;5755;48.116;11.608;2023-01-04T03:33:14;4.20;99.90
11399;DHT22;5755;48.116;11.608;2023-01-04T03:36:07;4.10;99.90
11399;DHT22;5755;48.116;11.608;2023-01-04T03:38:42;4.10;99.90
11399;DHT22;5755;48.116;11.608;2023-01-04T03:41:31;4.10;99.90
11399;DHT22;5755;48.116;11.608;2023-01-04T03:44:23;4.20;99.90
11399;DHT22;5755;48.116;11.608;2023-01-04T03:47:16;4.40;99.90
11399;DHT22;5755;48.116;11.608;2023-01-04T03:50:06;4.40;99.90
11399;DHT22;5755;48.116;11.608;2023-01-04T03:52:39;4.50;99.90
11399;DHT22;5755;48.116;11.608;2023-01-04T03:55:08;4.40;99.90
11399;DHT22;5755;48.116;11.608;2023-01-04T03:57:36;4.30;99.90
11399;DHT22;5755;48.116;11.608;2023-01-04T04:00:07;4.20;99.90
11399;DHT22;5755;48.116;11.608;2023-01-04T04:02:36;4.20;99.90
11399;DHT22;5755;48.116;11.608;2023-01-04T04:05:03;4.30;99.90
11399;DHT22;5755;48.116;11.608;2023-01-04T04:07:49;4.30;99.90
11399;DHT22;5755;48.116;11.608;2023-01-04T04:10:34;4.40;99.90
11399;DHT22;5755;48.116;11.608;2023-01-04T04:13:00;4.40;99.90
11399;DHT22;5755;48.116;11.608;2023-01-04T04:15:27;4.40;99.90
11399;DHT22;5755;48.116;11.608;2023-01-04T04:17:54;4.30;99.90
11399;DHT22;5755;48.116;11.608;2023-01-04T04:20:21;4.30;99.90
11399;DHT22;5755;48.116;11.608;2023-01-04T04:22:49;4.10;99.90
11399;DHT22;5755;48.116;11.608;2023-01-04T04:25:16;4.00;99.90
11399;DHT22;5755;48.116;11.608;2023-01-04T04:27:42;3.90;99.90
11399;DHT22;5755;48.116;11.608;2023-01-04T04:30:09;3.80;99.90
11399;DHT22;5755;48.116;11.608;2023-01-04T04:32:36;3.70;99.90
11399;DHT22;5755;48.116;11.608;2023-01-04T04:35:04;3.60;99.90
11399;DHT22;5755;48.116;11.608;2023-01-04T04:37:30;3.60;99.90
11399;DHT22;5755;48.116;11.608;2023-01-04T04:40:00;3.50;99.90
11399;DHT22;5755;48.116;11.608;2023-01-04T04:42:26;3.60;99.90
11399;DHT22;5755;48.116;11.608;2023-01-04T04:44:52;3.60;99.90
11399;DHT22;5755;48.116;11.608;2023-01-04T04:47:19;3.60;99.90
11399;DHT22;5755;48.116;11.608;2023-01-04T04:49:46;3.60;99.90
11399;DHT22;5755;48.116;11.608;2023-01-04T04:52:13;3.40;99.90
11399;DHT22;5755;48.116;11.608;2023-01-04T04:54:39;3.30;99.90
11399;DHT22;5755;48.116;11.608;2023-01-04T04:57:08;3.20;99.90
11399;DHT22;5755;48.116;11.608;2023-01-04T04:59:34;3.20;99.90
11399;DHT22;5755;48.116;11.608;2023-01-04T05:02:02;3.10;99.90
11399;DHT22;5755;48.116;11.608;2023-01-04T05:04:28;3.00;99.90
11399;DHT22;5755;48.116;11.608;2023-01-04T05:06:55;2.90;99.90
11399;DHT22;5755;48.116;11.608;2023-01-04T05:09:22;3.00;99.90
11399;DHT22;5755;48.116;11.608;2023-01-04T05:11:49;2.90;99.90
11399;DHT22;5755;48.116;11.608;2023-01-04T05:14:34;2.90;99.90
11399;DHT22;5755;48.116;11.608;2023-01-04T05:17:01;2.80;99.90
11399;DHT22;5755;48.116;11.608;2023-01-04T05:19:28;2.80;99.90
11399;DHT22;5755;48.116;11.608;2023-01-04T05:21:55;2.70;99.90
11399;DHT22;5755;48.116;11.608;2023-01-04T05:24:21;2.70;99.90
11399;DHT22;5755;48.116;11.608;2023-01-04T05:26:48;2.70;99.90
11399;DHT22;5755;48.116;11.608;2023-01-04T05:29:15;2.70;99.90
11399;DHT22;5755;48.116;11.608;2023-01-04T05:31:57;2.60;99.90
11399;DHT22;5755;48.116;11.608;2023-01-04T05:34:24;2.60;99.90
11399;DHT22;5755;48.116;11.608;2023-01-04T05:36:51;2.60;99.90
11399;DHT22;5755;48.116;11.608;2023-01-04T05:39:18;2.60;99.90
11399;DHT22;5755;48.116;11.608;2023-01-04T05:41:44;2.60;99.90
11399;DHT22;5755;48.116;11.608;2023-01-04T05:44:28;2.60;99.90
11399;DHT22;5755;48.116;11.608;2023-01-04T05:46:56;2.60;99.90
11399;DHT22;5755;48.116;11.608;2023-01-04T05:49:23;2.70;99.90
11399;DHT22;5755;48.116;11.608;2023-01-04T05:51:50;2.70;99.90
11399;DHT22;5755;48.116;11.608;2023-01-04T05:54:17;2.80;99.90
11399;DHT22;5755;48.116;11.608;2023-01-04T05:56:44;2.70;99.90
11399;DHT22;5755;48.116;11.608;2023-01-04T05:59:11;2.70;99.90
11399;DHT22;5755;48.116;11.608;2023-01-04T06:01:38;2.70;99.90
11399;DHT22;5755;48.116;11.608;2023-01-04T06:04:06;2.80;99.90
11399;DHT22;5755;48.116;11.608;2023-01-04T06:06:33;2.80;99.90
11399;DHT22;5755;48.116;11.608;2023-01-04T06:08:59;2.80;99.90
11399;DHT22;5755;48.116;11.608;2023-01-04T06:11:26;2.80;99.90
11399;DHT22;5755;48.116;11.608;2023-01-04T06:13:53;2.90;99.90
11399;DHT22;5755;48.116;11.608;2023-01-04T06:16:20;3.00;99.90
11399;DHT22;5755;48.116;11.608;2023-01-04T06:18:46;3.10;99.90
11399;DHT22;5755;48.116;11.608;2023-01-04T06:21:15;3.20;99.90
11399;DHT22;5755;48.116;11.608;2023-01-04T06:23:42;3.20;99.90
11399;DHT22;5755;48.116;11.608;2023-01-04T06:26:08;3.30;99.90
11399;DHT22;5755;48.116;11.608;2023-01-04T06:28:35;3.30;99.90
11399;DHT22;5755;48.116;11.608;2023-01-04T06:31:03;3.40;99.90
11399;DHT22;5755;48.116;11.608;2023-01-04T06:33:30;3.50;99.90
11399;DHT22;5755;48.116;11.608;2023-01-04T06:35:58;3.60;99.90
11399;DHT22;5755;48.116;11.608;2023-01-04T06:38:26;3.70;99.90
11399;DHT22;5755;48.116;11.608;2023-01-04T06:40:53;3.80;99.90
11399;DHT22;5755;48.116;11.608;2023-01-04T06:43:20;3.80;99.90
11399;DHT22;5755;48.116;11.608;2023-01-04T06:45:47;3.90;99.90
11399;DHT22;5755;48.116;11.608;2023-01-04T06:48:14;4.10;99.90
11399;DHT22;5755;48.116;11.608;2023-01-04T06:50:41;4.30;99.90
11399;DHT22;5755;48.116;11.608;2023-01-04T06:53:08;4.40;99.90
11399;DHT22;5755;48.116;11.608;2023-01-04T06:55:36;4.40;99.90
11399;DHT22;5755;48.116;11.608;2023-01-04T06:58:03;4.40;99.90
11399;DHT22;5755;48.116;11.608;2023-01-04T07:00:30;4.30;99.90
11399;DHT22;5755;48.116;11.608;2023-01-04T07:02:56;4.30;99.90
11399;DHT22;5755;48.116;11.608;2023-01-04T07:05:23;4.00;99.90
11399;DHT22;5755;48.116;11.608;2023-01-04T07:07:50;3.80;99.90
11399;DHT22;5755;48.116;11.608;2023-01-04T07:10:17;3.70;99.90
11399;DHT22;5755;48.116;11.608;2023-01-04T07:12:45;3.60;99.90
11399;DHT22;5755;48.116;11.608;2023-01-04T07:15:12;3.50;99.90
11399;DHT22;5755;48.116;11.608;2023-01-04T07:17:38;3.50;99.90
11399;DHT22;5755;48.116;11.608;2023-01-04T07:20:06;3.40;99.90
11399;DHT22;5755;48.116;11.608;2023-01-04T07:22:33;3.40;99.90
11399;DHT22;5755;48.116;11.608;2023-01-04T07:25:00;3.30;99.90
11399;DHT22;5755;48.116;11.608;2023-01-04T07:27:26;3.30;99.90
11399;DHT22;5755;48.116;11.608;2023-01-04T07:29:55;3.30;99.90
11399;DHT22;5755;48.116;11.608;2023-01-04T07:32:22;3.30;99.90
11399;DHT22;5755;48.116;11.608;2023-01-04T07:34:49;3.30;99.90
11399;DHT22;5755;48.116;11.608;2023-01-04T07:37:16;3.30;99.90
11399;DHT22;5755;48.116;11.608;2023-01-04T07:39:43;3.30;99.90
11399;DHT22;5755;48.116;11.608;2023-01-04T07:42:10;3.30;99.90
11399;DHT22;5755;48.116;11.608;2023-01-04T07:44:37;3.20;99.90
11399;DHT22;5755;48.116;11.608;2023-01-04T07:47:05;3.20;99.90
11399;DHT22;5755;48.116;11.608;2023-01-04T07:49:32;3.30;99.90
11399;DHT22;5755;48.116;11.608;2023-01-04T07:51:59;3.40;99.90
11399;DHT22;5755;48.116;11.608;2023-01-04T07:54:26;3.40;99.90
11399;DHT22;5755;48.116;11.608;2023-01-04T07:56:52;3.50;99.90
11399;DHT22;5755;48.116;11.608;2023-01-04T07:59:20;3.70;99.90
11399;DHT22;5755;48.116;11.608;2023-01-04T08:01:47;3.80;99.90
11399;DHT22;5755;48.116;11.608;2023-01-04T08:04:16;4.00;99.90
11399;DHT22;5755;48.116;11.608;2023-01-04T08:06:43;4.00;99.90
11399;DHT22;5755;48.116;11.608;2023-01-04T08:09:11;4.20;99.90
11399;DHT22;5755;48.116;11.608;2023-01-04T08:11:38;4.30;99.90
11399;DHT22;5755;48.116;11.608;2023-01-04T08:14:05;4.40;99.90
11399;DHT22;5755;48.116;11.608;2023-01-04T08:16:33;4.50;99.90
11399;DHT22;5755;48.116;11.608;2023-01-04T08:19:03;4.60;99.90
11399;DHT22;5755;48.116;11.608;2023-01-04T08:21:33;4.70;99.90
11399;DHT22;5755;48.116;11.608;2023-01-04T08:24:00;4.90;99.90
11399;DHT22;5755;48.116;11.608;2023-01-04T08:26:28;5.00;99.90
11399;DHT22;5755;48.116;11.608;2023-01-04T08:28:55;5.10;99.90
11399;DHT22;5755;48.116;11.608;2023-01-04T08:31:23;5.30;99.90
11399;DHT22;5755;48.116;11.608;2023-01-04T08:33:51;5.40;99.90
11399;DHT22;5755;48.116;11.608;2023-01-04T08:36:19;5.50;99.90
11399;DHT22;5755;48.116;11.608;2023-01-04T08:38:48;5.60;99.90
11399;DHT22;5755;48.116;11.608;2023-01-04T08:41:16;5.70;99.90
11399;DHT22;5755;48.116;11.608;2023-01-04T08:43:44;5.80;99.90
11399;DHT22;5755;48.116;11.608;2023-01-04T08:46:11;5.90;99.90
11399;DHT22;5755;48.116;11.608;2023-01-04T08:48:39;6.00;99.90
11399;DHT22;5755;48.116;11.608;2023-01-04T08:51:09;6.10;99.90
11399;DHT22;5755;48.116;11.608;2023-01-04T08:53:37;6.70;99.90
11399;DHT22;5755;48.116;11.608;2023-01-04T08:56:06;7.10;99.90
11399;DHT22;5755;48.116;11.608;2023-01-04T08:58:35;7.40;98.90
11399;DHT22;5755;48.116;11.608;2023-01-04T09:01:03;8.20;97.30
11399;DHT22;5755;48.116;11.608;2023-01-04T09:03:30;9.00;94.60
11399;DHT22;5755;48.116;11.608;2023-01-04T09:06:01;9.90;90.70
11399;DHT22;5755;48.116;11.608;2023-01-04T09:08:30;10.10;85.90
11399;DHT22;5755;48.116;11.608;2023-01-04T09:10:57;9.90;87.50
11399;DHT22;5755;48.116;11.608;2023-01-04T09:13:25;9.40;90.50
11399;DHT22;5755;48.116;11.608;2023-01-04T09:15:52;9.10;92.20
11399;DHT22;5755;48.116;11.608;2023-01-04T09:18:19;9.50;90.90
11399;DHT22;5755;48.116;11.608;2023-01-04T09:20:48;9.50;90.60
11399;DHT22;5755;48.116;11.608;2023-01-04T09:23:28;9.70;90.60
11399;DHT22;5755;48.116;11.608;2023-01-04T09:26:31;10.50;83.10
11399;DHT22;5755;48.116;11.608;2023-01-04T09:28:59;10.30;83.60
11399;DHT22;5755;48.116;11.608;2023-01-04T09:31:28;10.30;83.50
11399;DHT22;5755;48.116;11.608;2023-01-04T09:33:55;10.60;82.20
11399;DHT22;5755;48.116;11.608;2023-01-04T09:36:22;10.70;81.60
11399;DHT22;5755;48.116;11.608;2023-01-04T09:38:50;11.30;75.60
11399;DHT22;5755;48.116;11.608;2023-01-04T09:41:23;11.50;74.70
11399;DHT22;5755;48.116;11.608;2023-01-04T09:43:53;12.10;68.10
11399;DHT22;5755;48.116;11.608;2023-01-04T09:46:27;12.60;58.30
11399;DHT22;5755;48.116;11.608;2023-01-04T09:49:02;12.80;54.30
11399;DHT22;5755;48.116;11.608;2023-01-04T09:51:33;12.50;56.90
11399;DHT22;5755;48.116;11.608;2023-01-04T09:54:06;12.30;61.60
11399;DHT22;5755;48.116;11.608;2023-01-04T09:56:37;12.20;58.70
11399;DHT22;5755;48.116;11.608;2023-01-04T09:59:09;11.80;68.10
11399;DHT22;5755;48.116;11.608;2023-01-04T10:01:43;11.50;70.20
11399;DHT22;5755;48.116;11.608;2023-01-04T10:04:15;11.20;74.40
11399;DHT22;5755;48.116;11.608;2023-01-04T10:06:44;10.70;78.80
11399;DHT22;5755;48.116;11.608;2023-01-04T10:09:13;10.50;82.10
11399;DHT22;5755;48.116;11.608;2023-01-04T10:12:00;10.20;83.50
11399;DHT22;5755;48.116;11.608;2023-01-04T10:14:44;10.00;84.30
11399;DHT22;5755;48.116;11.608;2023-01-04T10:17:23;9.80;88.60
11399;DHT22;5755;48.116;11.608;2023-01-04T10:20:03;9.70;89.00
11399;DHT22;5755;48.116;11.608;2023-01-04T10:22:43;9.60;90.60
11399;DHT22;5755;48.116;11.608;2023-01-04T10:25:22;9.60;90.60
11399;DHT22;5755;48.116;11.608;2023-01-04T10:28:05;9.60;90.00
11399;DHT22;5755;48.116;11.608;2023-01-04T10:30:41;9.60;90.20
11399;DHT22;5755;48.116;11.608;2023-01-04T10:33:12;9.60;90.60
11399;DHT22;5755;48.116;11.608;2023-01-04T10:35:42;9.70;90.10
11399;DHT22;5755;48.116;11.608;2023-01-04T10:38:16;9.90;88.10
11399;DHT22;5755;48.116;11.608;2023-01-04T10:40:45;10.00;85.80
11399;DHT22;5755;48.116;11.608;2023-01-04T10:43:18;10.10;85.70
11399;DHT22;5755;48.116;11.608;2023-01-04T10:45:50;10.40;86.20
11399;DHT22;5755;48.116;11.608;2023-01-04T10:48:25;10.60;80.70
11399;DHT22;5755;48.116;11.608;2023-01-04T10:50:57;10.90;77.50
11399;DHT22;5755;48.116;11.608;2023-01-04T10:53:27;10.90;76.60
11399;DHT22;5755;48.116;11.608;2023-01-04T10:55:59;10.70;75.10
11399;DHT22;5755;48.116;11.608;2023-01-04T10:58:31;10.50;73.60
11399;DHT22;5755;48.116;11.608;2023-01-04T11:01:03;10.30;75.70
11399;DHT22;5755;48.116;11.608;2023-01-04T11:03:37;10.10;78.60
11399;DHT22;5755;48.116;11.608;2023-01-04T11:06:11;9.90;78.40
11399;DHT22;5755;48.116;11.608;2023-01-04T11:08:44;9.70;80.60
11399;DHT22;5755;48.116;11.608;2023-01-04T11:11:16;9.50;81.80
11399;DHT22;5755;48.116;11.608;2023-01-04T11:13:44;9.40;82.90
11399;DHT22;5755;48.116;11.608;2023-01-04T11:16:11;9.30;83.20
11399;DHT22;5755;48.116;11.608;2023-01-04T11:18:40;9.30;85.70
11399;DHT22;5755;48.116;11.608;2023-01-04T11:21:11;9.30;84.70
11399;DHT22;5755;48.116;11.608;2023-01-04T11:23:39;9.30;81.80
11399;DHT22;5755;48.116;11.608;2023-01-04T11:26:08;9.40;81.10
11399;DHT22;5755;48.116;11.608;2023-01-04T11:28:41;9.50;80.10
11399;DHT22;5755;48.116;11.608;2023-01-04T11:31:15;9.50;78.20
11399;DHT22;5755;48.116;11.608;2023-01-04T11:33:54;9.50;77.60
11399;DHT22;5755;48.116;11.608;2023-01-04T11:36:33;9.40;77.70
11399;DHT22;5755;48.116;11.608;2023-01-04T11:39:01;9.40;78.90
11399;DHT22;5755;48.116;11.608;2023-01-04T11:41:30;9.40;78.20
11399;DHT22;5755;48.116;11.608;2023-01-04T11:43:58;9.40;81.60
11399;DHT22;5755;48.116;11.608;2023-01-04T11:46:26;9.40;79.20
11399;DHT22;5755;48.116;11.608;2023-01-04T11:48:55;9.50;78.60
11399;DHT22;5755;48.116;11.608;2023-01-04T11:51:36;9.60;77.90
11399;DHT22;5755;48.116;11.608;2023-01-04T11:54:16;9.80;77.40
11399;DHT22;5755;48.116;11.608;2023-01-04T11:56:57;9.90;74.90
11399;DHT22;5755;48.116;11.608;2023-01-04T11:59:25;9.90;74.90
11399;DHT22;5755;48.116;11.608;2023-01-04T12:02:17;10.00;73.00
11399;DHT22;5755;48.116;11.608;2023-01-04T12:04:46;10.00;72.60
11399;DHT22;5755;48.116;11.608;2023-01-04T12:07:24;10.00;67.30
11399;DHT22;5755;48.116;11.608;2023-01-04T12:09:52;10.10;69.70
11399;DHT22;5755;48.116;11.608;2023-01-04T12:12:19;10.20;64.60
11399;DHT22;5755;48.116;11.608;2023-01-04T12:14:47;10.30;62.00
11399;DHT22;5755;48.116;11.608;2023-01-04T12:17:19;10.40;61.00
11399;DHT22;5755;48.116;11.608;2023-01-04T12:19:50;10.30;62.30
11399;DHT22;5755;48.116;11.608;2023-01-04T12:22:23;10.30;62.10
11399;DHT22;5755;48.116;11.608;2023-01-04T12:24:51;10.40;56.60
11399;DHT22;5755;48.116;11.608;2023-01-04T12:27:18;10.40;58.10
11399;DHT22;5755;48.116;11.608;2023-01-04T12:29:55;10.40;56.10
11399;DHT22;5755;48.116;11.608;2023-01-04T12:32:43;10.40;55.10
11399;DHT22;5755;48.116;11.608;2023-01-04T12:42:31;10.30;52.80
11399;DHT22;5755;48.116;11.608;2023-01-04T12:45:19;10.30;47.90
11399;DHT22;5755;48.116;11.608;2023-01-04T12:47:51;10.40;48.80
11399;DHT22;5755;48.116;11.608;2023-01-04T12:53:50;10.30;49.10
11399;DHT22;5755;48.116;11.608;2023-01-04T12:56:17;10.30;47.50
11399;DHT22;5755;48.116;11.608;2023-01-04T12:59:07;10.40;44.90
11399;DHT22;5755;48.116;11.608;2023-01-04T13:01:36;10.40;47.20
11399;DHT22;5755;48.116;11.608;2023-01-04T13:04:28;10.50;47.20
11399;DHT22;5755;48.116;11.608;2023-01-04T13:07:07;10.50;43.70
11399;DHT22;5755;48.116;11.608;2023-01-04T13:09:49;10.60;44.50
11399;DHT22;5755;48.116;11.608;2023-01-04T13:12:39;10.50;38.50
11399;DHT22;5755;48.116;11.608;2023-01-04T13:15:16;10.60;37.10
11399;DHT22;5755;48.116;11.608;2023-01-04T13:17:46;10.70;36.30
11399;DHT22;5755;48.116;11.608;2023-01-04T13:20:16;10.70;33.20
11399;DHT22;5755;48.116;11.608;2023-01-04T13:22:48;10.80;33.30
11399;DHT22;5755;48.116;11.608;2023-01-04T13:25:18;10.80;33.00
11399;DHT22;5755;48.116;11.608;2023-01-04T13:27:56;10.70;33.00
11399;DHT22;5755;48.116;11.608;2023-01-04T13:30:33;10.80;30.30
11399;DHT22;5755;48.116;11.608;2023-01-04T13:33:10;10.90;30.90
11399;DHT22;5755;48.116;11.608;2023-01-04T13:35:40;11.00;30.00
11399;DHT22;5755;48.116;11.608;2023-01-04T13:38:12;11.00;27.60
11399;DHT22;5755;48.116;11.608;2023-01-04T13:40:42;11.00;28.70
11399;DHT22;5755;48.116;11.608;2023-01-04T13:43:36;11.00;26.40
11399;DHT22;5755;48.116;11.608;2023-01-04T13:46:14;11.00;27.00
11399;DHT22;5755;48.116;11.608;2023-01-04T13:48:44;10.90;27.80
11399;DHT22;5755;48.116;11.608;2023-01-04T13:51:15;11.00;26.50
11399;DHT22;5755;48.116;11.608;2023-01-04T13:53:50;11.00;25.80
11399;DHT22;5755;48.116;11.608;2023-01-04T13:56:20;11.00;26.40
11399;DHT22;5755;48.116;11.608;2023-01-04T13:58:47;10.90;26.70
11399;DHT22;5755;48.116;11.608;2023-01-04T14:01:19;10.90;24.50
11399;DHT22;5755;48.116;11.608;2023-01-04T14:03:49;10.90;27.00
11399;DHT22;5755;48.116;11.608;2023-01-04T14:06:20;10.80;24.40
11399;DHT22;5755;48.116;11.608;2023-01-04T14:08:52;10.80;24.40
11399;DHT22;5755;48.116;11.608;2023-01-04T14:11:23;10.80;25.80
11399;DHT22;5755;48.116;11.608;2023-01-04T14:14:18;10.80;25.40
11399;DHT22;5755;48.116;11.608;2023-01-04T14:16:48;10.80;24.40
11399;DHT22;5755;48.116;11.608;2023-01-04T14:19:43;10.80;26.30
11399;DHT22;5755;48.116;11.608;2023-01-04T14:22:36;10.70;24.60
11399;DHT22;5755;48.116;11.608;2023-01-04T14:25:35;10.70;25.90
11399;DHT22;5755;48.116;11.608;2023-01-04T14:28:27;10.80;24.30
11399;DHT22;5755;48.116;11.608;2023-01-04T14:31:09;10.80;24.30
11399;DHT22;5755;48.116;11.608;2023-01-04T14:33:41;10.80;24.30
11399;DHT22;5755;48.116;11.608;2023-01-04T14:36:11;10.80;24.30
11399;DHT22;5755;48.116;11.608;2023-01-04T14:38:41;10.70;25.70
11399;DHT22;5755;48.116;11.608;2023-01-04T14:41:11;10.70;25.50
11399;DHT22;5755;48.116;11.608;2023-01-04T14:43:45;10.70;25.30
11399;DHT22;5755;48.116;11.608;2023-01-04T14:46:12;10.70;24.30
11399;DHT22;5755;48.116;11.608;2023-01-04T14:48:41;10.60;26.10
11399;DHT22;5755;48.116;11.608;2023-01-04T14:51:11;10.60;26.80
11399;DHT22;5755;48.116;11.608;2023-01-04T14:53:40;10.60;27.20
11399;DHT22;5755;48.116;11.608;2023-01-04T14:56:10;10.60;25.40
11399;DHT22;5755;48.116;11.608;2023-01-04T14:58:37;10.70;25.60
11399;DHT22;5755;48.116;11.608;2023-01-04T15:01:04;10.70;25.40
11399;DHT22;5755;48.116;11.608;2023-01-04T15:03:31;10.70;26.00
11399;DHT22;5755;48.116;11.608;2023-01-04T15:05:59;10.70;25.90
11399;DHT22;5755;48.116;11.608;2023-01-04T15:08:26;10.60;26.10
11399;DHT22;5755;48.116;11.608;2023-01-04T15:10:53;10.70;26.40
11399;DHT22;5755;48.116;11.608;2023-01-04T15:13:20;10.70;27.20
11399;DHT22;5755;48.116;11.608;2023-01-04T15:15:47;10.70;27.50
11399;DHT22;5755;48.116;11.608;2023-01-04T15:18:15;10.70;27.10
11399;DHT22;5755;48.116;11.608;2023-01-04T15:20:42;10.70;27.40
11399;DHT22;5755;48.116;11.608;2023-01-04T15:23:10;10.60;27.60
11399;DHT22;5755;48.116;11.608;2023-01-04T15:25:38;10.60;27.90
11399;DHT22;5755;48.116;11.608;2023-01-04T15:28:05;10.60;29.30
11399;DHT22;5755;48.116;11.608;2023-01-04T15:30:32;10.60;28.90
11399;DHT22;5755;48.116;11.608;2023-01-04T15:32:59;10.60;29.20
11399;DHT22;5755;48.116;11.608;2023-01-04T15:35:26;10.60;30.40
11399;DHT22;5755;48.116;11.608;2023-01-04T15:37:53;10.50;30.60
11399;DHT22;5755;48.116;11.608;2023-01-04T15:40:21;10.50;31.20
11399;DHT22;5755;48.116;11.608;2023-01-04T15:42:48;10.50;31.60
11399;DHT22;5755;48.116;11.608;2023-01-04T15:45:23;10.50;32.20
11399;DHT22;5755;48.116;11.608;2023-01-04T15:47:50;10.40;32.50
11399;DHT22;5755;48.116;11.608;2023-01-04T15:50:18;10.50;32.20
11399;DHT22;5755;48.116;11.608;2023-01-04T15:52:45;10.40;32.70
11399;DHT22;5755;48.116;11.608;2023-01-04T15:55:12;10.40;33.70
11399;DHT22;5755;48.116;11.608;2023-01-04T15:57:41;10.40;34.20
11399;DHT22;5755;48.116;11.608;2023-01-04T16:00:08;10.30;35.10
11399;DHT22;5755;48.116;11.608;2023-01-04T16:02:35;10.20;36.30
11399;DHT22;5755;48.116;11.608;2023-01-04T16:05:03;10.20;37.90
11399;DHT22;5755;48.116;11.608;2023-01-04T16:07:30;10.20;39.30
11399;DHT22;5755;48.116;11.608;2023-01-04T16:09:57;10.20;39.40
11399;DHT22;5755;48.116;11.608;2023-01-04T16:12:24;10.20;40.60
11399;DHT22;5755;48.116;11.608;2023-01-04T16:15:13;10.20;41.80
11399;DHT22;5755;48.116;11.608;2023-01-04T16:17:41;10.10;42.40
11399;DHT22;5755;48.116;11.608;2023-01-04T16:20:09;10.10;45.40
11399;DHT22;5755;48.116;11.608;2023-01-04T16:22:36;10.20;47.00
11399;DHT22;5755;48.116;11.608;2023-01-04T16:25:04;10.20;50.60
11399;DHT22;5755;48.116;11.608;2023-01-04T16:27:32;10.20;52.70
11399;DHT22;5755;48.116;11.608;2023-01-04T16:29:59;10.20;54.60